Time;durP1;ratioP1;P1;durP2;ratioP2;P2;SDS_P1;SDS_P2;PMS_P1;PMS_P2;Temp;Humidity;BMP_temperature;BMP_pressure;BME280_temperature;BME280_humidity;BME280_pressure;Samples;Min_cycle;Max_cycle;Signal;HPM_P1;HPM_P2
2022/04/10 00:01:13;;;;;;;0.60;0.60;;;6.50;99.90;6.00;101708.00;;;;5040806;28;20263;-72
2022/04/10 00:03:44;;;;;;;0.57;0.57;;;6.50;99.90;5.80;101707.00;;;;5040728;28;20614;-72
2022/04/10 00:06:10;;;;;;;1.00;1.00;;;6.40;99.90;5.80;101694.00;;;;5040761;28;20229;-72
2022/04/10 00:08:38;;;;;;;0.90;0.90;;;6.40;99.90;5.60;101648.00;;;;5074543;28;20197;-72
2022/04/10 00:11:10;;;;;;;0.60;0.60;;;6.30;99.90;5.70;101687.00;;;;5040637;28;20621;-71
2022/04/10 00:13:46;;;;;;;0.60;0.60;;;6.20;99.90;5.60;101697.00;;;;5040996;28;20532;-71
2022/04/10 00:16:15;;;;;;;0.63;0.63;;;6.20;99.90;5.80;101698.00;;;;5056741;28;20618;-71
2022/04/10 00:18:46;;;;;;;0.80;0.80;;;6.10;99.90;5.80;101667.00;;;;5040700;28;20191;-71
2022/04/10 00:21:18;;;;;;;0.70;0.70;;;6.20;99.90;6.60;101655.00;;;;5057520;28;20187;-71
2022/04/10 00:23:49;;;;;;;0.73;0.73;;;6.60;99.90;6.80;101682.00;;;;5074844;28;20176;-72
2022/04/10 00:26:20;;;;;;;0.70;0.70;;;6.90;99.90;6.10;101682.00;;;;5056853;28;20187;-71
2022/04/10 00:28:51;;;;;;;0.70;0.70;;;6.80;99.90;5.80;101679.00;;;;5057649;28;20228;-72
2022/04/10 00:31:20;;;;;;;1.10;1.10;;;6.50;99.90;5.90;101682.00;;;;5056400;28;20202;-72
2022/04/10 00:33:51;;;;;;;0.60;0.60;;;6.30;99.90;6.50;101648.00;;;;5040452;28;20261;-73
2022/04/10 00:36:20;;;;;;;0.70;0.70;;;6.60;99.90;5.80;101682.00;;;;5056846;28;20197;-73
2022/04/10 00:38:49;;;;;;;2.37;2.27;;;6.40;99.90;5.70;101680.00;;;;5039701;28;20216;-72
2022/04/10 00:41:18;;;;;;;0.70;0.70;;;6.20;99.90;6.30;101641.00;;;;5056705;28;20546;-74
2022/04/10 00:44:05;;;;;;;0.70;0.70;;;6.40;99.90;6.50;101680.00;;;;5040569;28;20252;-72
2022/04/10 00:46:35;;;;;;;2.13;2.03;;;6.60;99.90;6.50;101682.00;;;;5056293;28;20239;-72
2022/04/10 00:49:01;;;;;;;1.23;1.20;;;6.80;99.90;5.70;101676.00;;;;5040218;28;20557;-72
2022/04/10 00:51:44;;;;;;;0.80;0.80;;;6.40;99.90;6.30;101676.00;;;;5056784;28;20201;-73
2022/04/10 00:54:26;;;;;;;0.70;0.70;;;6.50;99.90;6.40;101669.00;;;;5057766;28;20157;-72
2022/04/10 00:57:00;;;;;;;0.60;0.60;;;6.60;99.90;6.60;101677.00;;;;5056077;28;20572;-74
2022/04/10 00:59:31;;;;;;;0.70;0.70;;;6.70;99.90;6.80;101672.00;;;;5057244;28;20191;-72
2022/04/10 01:02:03;;;;;;;0.70;0.70;;;6.90;99.90;6.70;101682.00;;;;5055552;28;20175;-72
2022/04/10 01:04:36;;;;;;;0.80;0.80;;;6.80;99.90;6.50;101677.00;;;;5056270;28;20530;-72
2022/04/10 01:07:11;;;;;;;0.80;0.80;;;6.70;99.90;6.50;101676.00;;;;5056612;28;20176;-72
2022/04/10 01:09:43;;;;;;;0.80;0.80;;;6.70;99.90;6.00;101631.00;;;;5056209;28;20623;-72
2022/04/10 01:12:14;;;;;;;0.87;0.87;;;6.50;99.90;5.70;101694.00;;;;5056106;28;20279;-72
2022/04/10 01:14:45;;;;;;;0.80;0.80;;;6.30;99.90;5.70;101692.00;;;;5039830;28;20275;-72
2022/04/10 01:17:20;;;;;;;0.80;0.80;;;6.10;99.90;5.80;101682.00;;;;5056198;28;20182;-72
2022/04/10 01:19:53;;;;;;;0.80;0.80;;;6.10;99.90;5.80;101685.00;;;;5056272;28;20203;-72
2022/04/10 01:22:35;;;;;;;0.70;0.70;;;6.10;99.90;5.40;101693.00;;;;5073423;28;20216;-71
2022/04/10 01:25:10;;;;;;;0.83;0.83;;;5.90;99.90;5.20;101690.00;;;;5055960;28;20616;-71
2022/04/10 01:27:42;;;;;;;0.80;0.80;;;5.80;99.90;5.40;101694.00;;;;5056052;28;20624;-71
2022/04/10 01:30:14;;;;;;;0.90;0.90;;;5.70;99.90;5.00;101690.00;;;;5055456;28;20189;-72
2022/04/10 01:32:45;;;;;;;0.80;0.80;;;5.50;99.90;4.70;101694.00;;;;5055301;28;20213;-72
2022/04/10 01:35:18;;;;;;;0.80;0.80;;;5.30;99.90;4.90;101688.00;;;;5056066;28;20181;-71
2022/04/10 01:37:51;;;;;;;0.90;0.90;;;5.30;99.90;5.20;101687.00;;;;5055212;28;20247;-71
2022/04/10 01:40:25;;;;;;;0.80;0.80;;;5.50;99.90;5.20;101692.00;;;;5039129;28;20181;-71
2022/04/10 01:42:56;;;;;;;0.80;0.80;;;5.40;99.90;5.10;101695.00;;;;5055837;28;20185;-72
2022/04/10 01:45:31;;;;;;;0.90;0.90;;;5.40;99.90;4.60;101668.00;;;;5055330;28;20201;-71
2022/04/10 01:48:06;;;;;;;0.80;0.80;;;5.30;99.90;4.50;101694.00;;;;5038787;28;20181;-71
2022/04/10 01:50:40;;;;;;;0.87;0.87;;;5.20;99.90;4.70;101704.00;;;;5056026;28;20223;-71
2022/04/10 01:53:11;;;;;;;0.80;0.80;;;5.20;99.90;4.70;101645.00;;;;5072470;28;20668;-71
2022/04/10 01:55:42;;;;;;;0.70;0.70;;;5.20;99.90;4.90;101654.00;;;;5055843;28;20543;-71
2022/04/10 01:58:13;;;;;;;0.80;0.80;;;5.20;99.90;4.90;101699.00;;;;5055743;28;20288;-71
2022/04/10 02:00:44;;;;;;;0.80;0.80;;;5.30;99.90;5.60;101691.00;;;;5038402;28;20181;-71
2022/04/10 02:03:15;;;;;;;0.90;0.90;;;5.60;99.90;5.50;101690.00;;;;5038454;28;20285;-71
2022/04/10 02:06:01;;;;;;;0.80;0.80;;;5.80;99.90;5.50;101698.00;;;;5054838;28;20256;-71
2022/04/10 02:08:34;;;;;;;0.80;0.80;;;5.80;99.90;5.10;101696.00;;;;5072951;28;20197;-72
2022/04/10 02:11:21;;;;;;;0.90;0.90;;;5.60;99.90;4.90;101701.00;;;;5055539;28;20280;-72
2022/04/10 02:13:48;;;;;;;0.90;0.90;;;5.40;99.90;4.70;101695.00;;;;5055247;28;20265;-71
2022/04/10 02:16:22;;;;;;;0.80;0.80;;;5.30;99.90;4.90;101699.00;;;;5072492;28;20516;-72
2022/04/10 02:18:51;;;;;;;0.87;0.87;;;5.30;99.90;4.50;101681.00;;;;5038554;28;20177;-70
2022/04/10 02:21:25;;;;;;;0.80;0.80;;;5.20;99.90;4.40;101696.00;;;;5054947;28;20667;-73
2022/04/10 02:23:57;;;;;;;0.80;0.80;;;5.10;99.90;4.40;101698.00;;;;5055186;28;20218;-71
2022/04/10 02:26:28;;;;;;;0.80;0.80;;;5.00;99.90;4.60;101689.00;;;;5055243;28;20177;-71
2022/04/10 02:29:02;;;;;;;0.63;0.63;;;5.00;99.90;4.70;101687.00;;;;5037773;28;20234;-71
2022/04/10 02:31:37;;;;;;;0.90;0.90;;;5.10;99.90;4.70;101663.00;;;;5038385;28;20209;-71
2022/04/10 02:34:16;;;;;;;0.70;0.70;;;5.10;99.90;4.70;101695.00;;;;5038729;28;20207;-71
2022/04/10 02:36:44;;;;;;;0.70;0.70;;;5.10;99.90;4.70;101693.00;;;;5071621;28;20181;-72
2022/04/10 02:39:13;;;;;;;0.90;0.90;;;5.10;99.90;4.80;101654.00;;;;5054677;28;20178;-72
2022/04/10 02:41:47;;;;;;;0.80;0.80;;;5.10;99.90;4.70;101696.00;;;;5055618;28;20509;-72
2022/04/10 02:44:25;;;;;;;0.70;0.70;;;5.10;99.90;4.60;101702.00;;;;5054734;28;20189;-71
2022/04/10 02:46:56;;;;;;;0.70;0.70;;;5.10;99.90;4.60;101716.00;;;;5055534;28;20169;-72
2022/04/10 02:49:28;;;;;;;0.80;0.80;;;5.00;99.90;4.70;101717.00;;;;5054400;28;20533;-72
2022/04/10 02:51:59;;;;;;;0.90;0.90;;;5.10;99.90;5.30;101710.00;;;;5037534;28;20660;-72
2022/04/10 02:54:30;;;;;;;0.70;0.70;;;5.40;99.90;5.40;101707.00;;;;5038192;28;20247;-72
2022/04/10 02:57:02;;;;;;;0.87;0.87;;;5.60;99.90;4.90;101720.00;;;;5054896;28;20181;-72
2022/04/10 02:59:34;;;;;;;0.80;0.80;;;5.60;99.90;5.20;101712.00;;;;5037584;28;20185;-72
2022/04/10 03:02:05;;;;;;;0.90;0.90;;;5.60;99.90;5.60;101715.00;;;;5054640;28;20183;-71
2022/04/10 03:04:39;;;;;;;6.73;1.97;;;5.70;99.90;5.80;101709.00;;;;5038020;28;20189;-72
2022/04/10 03:07:10;;;;;;;0.80;0.80;;;5.90;99.90;4.90;101712.00;;;;5037575;28;20660;-72
2022/04/10 03:09:41;;;;;;;0.87;0.87;;;5.70;99.90;5.30;101712.00;;;;5054813;28;20166;-72
2022/04/10 03:12:13;;;;;;;0.80;0.80;;;5.60;99.90;5.00;101714.00;;;;5037634;28;20587;-72
2022/04/10 03:14:47;;;;;;;0.70;0.70;;;5.60;99.90;4.40;101717.00;;;;5053866;28;20201;-72
2022/04/10 03:17:21;;;;;;;0.80;0.80;;;5.30;99.90;4.80;101722.00;;;;5055190;28;20327;-72
2022/04/10 03:19:52;;;;;;;0.70;0.70;;;5.20;99.90;4.80;101710.00;;;;5057799;28;20181;-72
2022/04/10 03:22:23;;;;;;;0.80;0.80;;;5.30;99.90;5.30;101718.00;;;;5075705;28;20185;-72
2022/04/10 03:24:55;;;;;;;2.20;2.10;;;5.50;99.90;5.10;101709.00;;;;5041525;28;20272;-72
2022/04/10 03:27:28;;;;;;;0.80;0.80;;;5.50;99.90;4.10;101719.00;;;;5058442;28;20161;-72
2022/04/10 03:30:00;;;;;;;0.83;0.83;;;5.10;99.90;3.70;101737.00;;;;5057807;28;20539;-72
2022/04/10 03:32:31;;;;;;;0.80;0.80;;;4.70;99.90;4.20;101732.00;;;;5057801;28;20210;-72
2022/04/10 03:35:02;;;;;;;0.70;0.70;;;4.70;99.90;4.70;101732.00;;;;5041217;28;20652;-72
2022/04/10 03:37:36;;;;;;;1.00;1.00;;;5.00;99.90;4.90;101725.00;;;;5040772;28;20216;-73
2022/04/10 03:40:08;;;;;;;0.70;0.70;;;5.10;99.90;4.90;101712.00;;;;5075971;28;20184;-72
2022/04/10 03:42:39;;;;;;;0.90;0.90;;;5.20;99.90;5.00;101720.00;;;;5058026;28;20209;-71
2022/04/10 03:45:12;;;;;;;1.00;1.00;;;5.30;99.90;5.10;101740.00;;;;5057391;28;20177;-71
2022/04/10 03:47:43;;;;;;;1.20;1.20;;;5.30;99.90;4.20;101713.00;;;;5075693;28;20268;-72
2022/04/10 03:50:14;;;;;;;0.70;0.70;;;5.10;99.90;4.70;101679.00;;;;5074870;28;20184;-71
2022/04/10 03:52:46;;;;;;;0.90;0.90;;;5.00;99.90;5.20;101730.00;;;;5058142;28;20205;-72
2022/04/10 03:55:17;;;;;;;0.80;0.80;;;5.30;99.90;5.30;101724.00;;;;5041034;28;20181;-72
2022/04/10 03:57:48;;;;;;;0.90;0.90;;;5.50;99.90;4.90;101735.00;;;;5040661;28;20192;-71
2022/04/10 04:00:20;;;;;;;1.07;1.07;;;5.40;99.90;4.80;101733.00;;;;5057883;28;20193;-71
2022/04/10 04:02:51;;;;;;;1.30;1.30;;;5.30;99.90;5.20;101732.00;;;;5040235;28;20201;-71
2022/04/10 04:05:25;;;;;;;0.90;0.90;;;5.40;99.90;5.20;101726.00;;;;5057470;28;20186;-72
2022/04/10 04:07:56;;;;;;;0.80;0.80;;;5.60;99.90;5.50;101740.00;;;;5057579;28;20177;-73
2022/04/10 04:10:27;;;;;;;1.77;1.77;;;5.70;99.90;5.10;101735.00;;;;5040909;28;20182;-72
2022/04/10 04:12:58;;;;;;;0.83;0.83;;;5.50;99.90;5.30;101743.00;;;;5056658;28;20201;-73
2022/04/10 04:15:29;;;;;;;0.80;0.80;;;5.60;99.90;5.20;101696.00;;;;5057164;28;20177;-72
2022/04/10 04:17:58;;;;;;;1.17;1.17;;;5.60;99.90;4.80;101740.00;;;;5040453;28;20636;-72
2022/04/10 04:20:29;;;;;;;0.90;0.90;;;5.30;99.90;4.90;101739.00;;;;5039787;28;20205;-72
2022/04/10 04:22:58;;;;;;;0.93;0.93;;;5.20;99.90;4.90;101744.00;;;;5057763;28;20201;-73
2022/04/10 04:25:30;;;;;;;0.80;0.80;;;5.20;99.90;4.80;101748.00;;;;5057398;28;20169;-74
2022/04/10 04:28:03;;;;;;;0.97;0.97;;;5.30;99.90;5.10;101745.00;;;;5056730;28;20646;-73
2022/04/10 04:30:37;;;;;;;0.87;0.87;;;5.40;99.90;5.40;101735.00;;;;5074806;28;20639;-73
2022/04/10 04:33:08;;;;;;;1.53;1.53;;;5.50;99.90;4.60;101725.00;;;;5040002;28;20212;-73
2022/04/10 04:35:39;;;;;;;0.90;0.90;;;5.30;99.90;4.70;101732.00;;;;5074406;28;20628;-73
2022/04/10 04:38:10;;;;;;;1.10;1.10;;;5.10;99.90;5.20;101735.00;;;;5040135;28;20185;-73
2022/04/10 04:40:41;;;;;;;0.90;0.90;;;5.20;99.90;4.50;101750.00;;;;5056912;28;20264;-73
2022/04/10 04:43:12;;;;;;;0.83;0.83;;;5.00;99.90;4.80;101750.00;;;;5074305;28;20210;-74
2022/04/10 04:45:44;;;;;;;0.90;0.90;;;5.00;99.90;4.60;101745.00;;;;5056432;28;20177;-73
2022/04/10 04:48:15;;;;;;;0.80;0.80;;;4.90;99.90;4.40;101745.00;;;;5040262;28;20184;-74
2022/04/10 04:51:02;;;;;;;1.37;1.37;;;4.80;99.90;4.40;101707.00;;;;5056157;28;20200;-73
2022/04/10 04:53:33;;;;;;;0.90;0.90;;;4.70;99.90;4.30;101755.00;;;;5056995;28;20181;-73
2022/04/10 04:56:04;;;;;;;1.10;1.10;;;4.70;99.90;4.40;101751.00;;;;5056683;28;20182;-73
2022/04/10 04:58:35;;;;;;;1.00;1.00;;;4.60;99.90;4.40;101773.00;;;;5039271;28;20660;-73
2022/04/10 05:01:06;;;;;;;1.00;1.00;;;4.60;99.90;4.30;101767.00;;;;5073802;28;20196;-73
2022/04/10 05:03:38;;;;;;;0.90;0.90;;;4.60;99.90;4.30;101765.00;;;;5056714;28;20225;-73
2022/04/10 05:06:17;;;;;;;1.00;1.00;;;4.60;99.90;4.20;101745.00;;;;5055913;28;20597;-73
2022/04/10 05:08:46;;;;;;;1.00;1.00;;;4.50;99.90;4.50;101773.00;;;;5056014;28;20174;-73
2022/04/10 05:11:15;;;;;;;0.90;0.90;;;4.50;99.90;4.20;101782.00;;;;5056246;28;20207;-74
2022/04/10 05:13:46;;;;;;;2.27;2.07;;;4.60;99.90;4.40;101788.00;;;;5056447;28;20636;-74
2022/04/10 05:16:22;;;;;;;1.20;1.20;;;4.70;99.90;4.50;101747.00;;;;5039167;28;20186;-73
2022/04/10 05:18:51;;;;;;;1.20;1.20;;;4.80;99.90;4.20;101770.00;;;;5056317;28;20181;-71
2022/04/10 05:21:19;;;;;;;1.90;1.50;;;4.60;99.90;4.20;101765.00;;;;5055852;28;20178;-71
2022/04/10 05:23:53;;;;;;;0.80;0.80;;;4.70;99.90;3.90;101785.00;;;;5056348;28;20260;-73
2022/04/10 05:26:22;;;;;;;0.80;0.80;;;4.50;99.90;4.10;101749.00;;;;5056073;28;20173;-72
2022/04/10 05:28:50;;;;;;;1.50;1.50;;;4.50;99.90;3.70;101797.00;;;;5056177;28;20514;-72
2022/04/10 05:31:19;;;;;;;1.73;1.73;;;4.50;99.90;4.50;101808.00;;;;5038788;28;20188;-73
2022/04/10 05:33:51;;;;;;;0.90;0.90;;;4.70;99.90;4.80;101805.00;;;;5055442;28;20197;-73
2022/04/10 05:36:19;;;;;;;0.90;0.90;;;5.00;99.90;4.90;101766.00;;;;5055754;28;20177;-72
2022/04/10 05:38:50;;;;;;;0.80;0.80;;;5.20;99.90;4.30;101809.00;;;;5073554;28;20231;-71
2022/04/10 05:41:21;;;;;;;1.10;1.10;;;5.00;99.90;4.70;101823.00;;;;5054958;28;20547;-73
2022/04/10 05:43:48;;;;;;;1.53;1.53;;;5.10;99.90;5.20;101814.00;;;;5056048;28;20209;-74
2022/04/10 05:46:20;;;;;;;0.70;0.70;;;5.40;99.90;4.90;101810.00;;;;5055919;28;20204;-73
2022/04/10 05:48:51;;;;;;;0.70;0.70;;;5.40;99.90;5.40;101777.00;;;;5039383;28;20273;-74
2022/04/10 05:51:20;;;;;;;0.80;0.80;;;5.60;99.90;5.30;101824.00;;;;5055877;28;20513;-71
2022/04/10 05:53:56;;;;;;;0.70;0.70;;;5.70;99.90;6.20;101778.00;;;;5056002;28;20268;-74
2022/04/10 05:56:22;;;;;;;1.00;1.00;;;6.20;99.90;7.70;101823.00;;;;5039444;28;20481;-75
2022/04/10 05:58:53;;;;;;;0.50;0.50;;;7.20;99.90;8.70;101828.00;;;;5039624;28;20690;-74
2022/04/10 06:01:24;;;;;;;4.23;2.93;;;8.30;99.90;9.10;101823.00;;;;5039269;28;20189;-74
2022/04/10 06:03:56;;;;;;;0.57;0.57;;;9.10;99.90;7.20;101816.00;;;;5038699;28;20197;-74
2022/04/10 06:06:22;;;;;;;6.23;2.20;;;8.40;99.90;7.40;101819.00;;;;5056879;28;20233;-75
2022/04/10 06:08:52;;;;;;;0.20;0.20;;;7.80;99.90;7.40;101835.00;;;;5073934;28;20183;-74
2022/04/10 06:11:24;;;;;;;0.30;0.30;;;8.00;99.90;7.10;101823.00;;;;5055913;28;20181;-74
2022/04/10 06:13:49;;;;;;;0.20;0.20;;;7.80;99.90;8.40;101804.00;;;;5055485;28;20526;-75
2022/04/10 06:16:15;;;;;;;0.20;0.20;;;8.30;99.90;6.80;101786.00;;;;5055639;28;20179;-75
2022/04/10 06:18:46;;;;;;;0.80;0.80;;;7.80;99.90;6.50;101787.00;;;;5038355;28;20192;-73
2022/04/10 06:21:26;;;;;;;0.90;0.70;;;7.50;99.90;8.40;101832.00;;;;5055141;28;20219;-73
2022/04/10 06:23:57;;;;;;;0.30;0.30;;;8.60;99.90;9.40;101818.00;;;;5055381;28;20190;-73
2022/04/10 06:26:23;;;;;;;0.87;0.83;;;9.60;99.90;8.40;101810.00;;;;5054629;28;20207;-73
2022/04/10 06:28:49;;;;;;;0.20;0.20;;;9.30;99.90;9.60;101864.00;;;;5071195;28;20223;-73
2022/04/10 06:31:17;;;;;;;0.77;0.77;;;9.80;99.90;10.20;101878.00;;;;5071064;28;20628;-74
2022/04/10 06:33:50;;;;;;;0.10;0.10;;;10.20;99.90;8.10;101815.00;;;;5038145;28;20208;-73
2022/04/10 06:36:18;;;;;;;0.57;0.57;;;9.40;99.90;9.90;101865.00;;;;5055427;28;20212;-74
2022/04/10 06:38:53;;;;;;;0.87;0.87;;;9.80;99.90;9.60;101836.00;;;;5037984;28;20268;-74
2022/04/10 06:41:29;;;;;;;0.20;0.20;;;10.00;99.90;9.00;101880.00;;;;5055148;28;20169;-73
2022/04/10 06:44:10;;;;;;;0.10;0.10;;;9.70;99.90;8.20;101870.00;;;;5055587;28;20236;-74
2022/04/10 06:46:39;;;;;;;0.10;0.10;;;9.20;99.90;11.40;101878.00;;;;5055802;28;20171;-74
2022/04/10 06:49:13;;;;;;;0.30;0.30;;;10.40;99.90;13.10;101931.00;;;;5054591;28;20219;-74
2022/04/10 06:51:40;;;;;;;0.10;0.10;;;12.40;99.90;13.40;101946.00;;;;5055518;28;20259;-68
2022/04/10 06:54:14;;;;;;;1.80;1.37;;;12.70;99.90;11.50;101958.00;;;;5056974;28;20195;-68
2022/04/10 06:56:44;;;;;;;0.30;0.30;;;12.00;99.90;8.40;101920.00;;;;5041493;28;20210;-60
2022/04/10 06:59:10;;;;;;;0.30;0.30;;;10.30;99.90;8.50;101840.00;;;;5075290;28;20203;-70
2022/04/10 07:01:36;;;;;;;1.37;1.33;;;9.20;99.90;8.00;101860.00;;;;5044193;28;20708;-68
2022/04/10 07:04:02;;;;;;;0.53;0.53;;;8.90;99.90;8.00;101874.00;;;;5057901;28;20280;-69
2022/04/10 07:06:31;;;;;;;4.33;2.03;;;8.80;99.90;7.60;101876.00;;;;5076849;28;20500;-70
2022/04/10 07:09:02;;;;;;;0.80;0.80;;;8.40;99.90;7.60;101875.00;;;;5059569;28;20226;-70
2022/04/10 07:11:33;;;;;;;1.90;1.07;;;8.40;99.90;7.40;101874.00;;;;5057925;28;20202;-70
2022/04/10 07:14:02;;;;;;;0.13;0.13;;;8.50;99.90;8.80;101873.00;;;;5059064;28;20631;-70
2022/04/10 07:16:28;;;;;;;2.20;0.70;;;8.90;99.90;12.40;101928.00;;;;5058655;28;20235;-70
2022/04/10 07:18:53;;;;;;;0.20;0.20;;;11.30;99.90;9.60;101906.00;;;;5058416;28;20184;-69
2022/04/10 07:23:41;;;;;;;0.97;0.97;;;10.90;99.90;10.00;101922.00;;;;5070644;28;20688;-69
2022/04/10 07:24:06;;;;;;;3.20;2.20;;;10.30;99.90;11.00;101930.00;;;;5068594;28;20193;-69
2022/04/10 07:26:34;;;;;;;0.30;0.30;;;10.90;99.90;11.90;101960.00;;;;5077064;28;20175;-70
2022/04/10 07:29:00;;;;;;;0.30;0.30;;;11.60;99.90;10.10;101962.00;;;;5078105;28;20193;-69
2022/04/10 07:31:25;;;;;;;1.60;1.27;;;11.10;99.90;9.40;101942.00;;;;5060929;28;20209;-69
2022/04/10 07:33:51;;;;;;;1.17;1.17;;;10.20;99.90;9.30;101941.00;;;;5040142;28;20202;-69
2022/04/10 07:36:17;;;;;;;0.23;0.23;;;9.80;99.90;10.40;101907.00;;;;5058116;28;20193;-69
2022/04/10 07:38:43;;;;;;;0.20;0.20;;;10.10;99.90;11.30;101933.00;;;;5057228;28;20178;-69
2022/04/10 07:41:09;;;;;;;0.50;0.50;;;11.20;99.90;11.90;101992.00;;;;5056782;28;20218;-69
2022/04/10 07:43:37;;;;;;;0.63;0.63;;;11.70;99.90;10.80;102011.00;;;;5075734;28;20568;-69
2022/04/10 07:48:48;;;;;;;1.30;1.17;;;11.30;99.90;11.40;102025.00;;;;5057984;28;20206;-69
2022/04/10 07:51:22;;;;;;;0.20;0.20;;;11.40;99.90;13.20;102063.00;;;;5043432;28;20625;-69
2022/04/10 07:53:56;;;;;;;0.23;0.23;;;12.40;99.90;11.50;102068.00;;;;5045680;28;20183;-69
2022/04/10 07:56:24;;;;;;;0.20;0.20;;;12.10;99.90;10.40;102035.00;;;;5041649;28;20186;-69
2022/04/10 07:58:50;;;;;;;0.10;0.10;;;11.20;99.90;12.20;102080.00;;;;5080783;28;20260;-69
2022/04/10 08:01:16;;;;;;;0.10;0.10;;;11.50;99.90;14.50;102104.00;;;;5076769;28;20188;-69
2022/04/10 08:03:46;;;;;;;0.40;0.40;;;13.00;99.90;15.90;102139.00;;;;5056362;28;20187;-70
2022/04/10 08:06:12;;;;;;;0.30;0.30;;;15.00;99.90;13.10;102142.00;;;;5057973;28;20191;-69
2022/04/10 08:08:41;;;;;;;0.10;0.10;;;13.70;99.90;16.40;102164.00;;;;5040077;28;20180;-70
2022/04/10 08:11:07;;;;;;;0.10;0.10;;;14.90;99.90;17.70;102093.00;;;;5059036;28;20181;-78
2022/04/10 08:13:33;;;;;;;0.30;0.30;;;16.40;99.90;18.40;102067.00;;;;5075256;28;20181;-73
2022/04/10 08:16:03;;;;;;;0.10;0.10;;;17.30;99.90;19.70;102018.00;;;;5057702;28;20219;-75
2022/04/10 08:18:29;;;;;;;0.20;0.20;;;18.50;99.90;19.30;101984.00;;;;5057512;28;20178;-77
2022/04/10 08:20:55;;;;;;;0.20;0.20;;;18.90;94.90;19.40;102010.00;;;;5075522;28;20260;-76
2022/04/10 08:23:26;;;;;;;0.38;0.38;;;18.90;93.70;18.00;102017.00;;;;5074909;28;20205;-66
2022/04/10 08:25:53;;;;;;;0.20;0.20;;;18.70;92.20;16.90;102031.00;;;;5040907;28;20280;-72
2022/04/10 08:28:23;;;;;;;1.38;1.30;;;17.30;93.40;17.20;102032.00;;;;5057773;28;20237;-76
2022/04/10 08:30:54;;;;;;;0.10;0.10;;;16.90;94.40;16.50;102038.00;;;;5074831;28;20177;-71
2022/04/10 08:33:26;;;;;;;1.07;0.63;;;16.90;94.00;14.60;102017.00;;;;5056182;28;20279;-68
2022/04/10 08:35:56;;;;;;;0.10;0.10;;;16.00;93.80;15.40;102058.00;;;;5057327;28;20175;-68
2022/04/10 08:38:29;;;;;;;0.10;0.10;;;15.40;96.00;16.20;102049.00;;;;5057243;28;20538;-77
2022/04/10 08:41:09;;;;;;;0.95;0.95;;;15.80;95.80;15.70;102052.00;;;;5056633;28;20183;-68
2022/04/10 08:43:47;;;;;;;0.43;0.43;;;16.20;94.50;16.90;102041.00;;;;5057056;28;20188;-72
2022/04/10 08:46:25;;;;;;;0.57;0.57;;;16.40;94.50;15.90;102017.00;;;;5056380;28;20200;-71
2022/04/10 08:49:02;;;;;;;0.10;0.10;;;16.10;94.30;15.40;102063.00;;;;5040600;28;20248;-70
2022/04/10 08:51:37;;;;;;;0.50;0.20;;;15.40;94.10;16.40;102065.00;;;;5040356;28;20194;-70
2022/04/10 08:54:09;;;;;;;0.20;0.20;;;15.90;94.50;16.60;102054.00;;;;5055817;28;20168;-71
2022/04/10 08:56:44;;;;;;;0.10;0.10;;;16.30;94.50;16.40;102048.00;;;;5056382;28;20183;-71
2022/04/10 08:59:10;;;;;;;0.37;0.37;;;16.30;94.00;17.00;102057.00;;;;5056417;28;20265;-71
2022/04/10 09:01:45;;;;;;;0.10;0.10;;;16.50;94.50;15.40;102065.00;;;;5055801;28;20298;-71
2022/04/10 09:04:16;;;;;;;0.30;0.27;;;15.80;94.80;15.30;102080.00;;;;5055881;28;20187;-71
2022/04/10 09:06:41;;;;;;;0.10;0.10;;;15.90;95.30;16.90;102067.00;;;;5056118;28;20184;-71
2022/04/10 09:09:18;;;;;;;0.10;0.10;;;16.20;95.20;16.60;102050.00;;;;5038309;28;20595;-71
2022/04/10 09:11:53;;;;;;;4.37;4.03;;;16.30;94.60;13.70;102044.00;;;;5055547;28;20657;-70
2022/04/10 09:14:34;;;;;;;0.50;0.50;;;15.20;94.80;16.00;102072.00;;;;5055825;28;20279;-71
2022/04/10 09:17:22;;;;;;;0.10;0.10;;;15.60;95.00;16.70;102067.00;;;;5071459;28;20183;-66
2022/04/10 09:19:53;;;;;;;88.70;11.33;;;16.30;94.40;17.00;102033.00;;;;5056257;28;20181;-66
2022/04/10 09:22:29;;;;;;;1.50;1.40;;;16.90;93.50;16.90;102068.00;;;;5055921;28;20204;-66
2022/04/10 09:25:16;;;;;;;0.20;0.20;;;16.90;94.10;16.00;102029.00;;;;5055717;28;20181;-67
2022/04/10 09:27:52;;;;;;;0.10;0.10;;;16.50;93.90;15.50;102022.00;;;;5055132;28;20183;-67
2022/04/10 09:30:37;;;;;;;0.10;0.10;;;16.00;94.00;17.10;102068.00;;;;5056145;28;20181;-68
2022/04/10 09:33:03;;;;;;;0.10;0.10;;;16.40;94.30;16.10;102056.00;;;;5055241;28;20532;-68
2022/04/10 09:35:50;;;;;;;0.33;0.33;;;16.30;94.30;17.30;102062.00;;;;5055721;28;20268;-69
2022/04/10 09:38:32;;;;;;;0.10;0.10;;;16.70;94.90;14.50;102093.00;;;;5038161;28;20221;-68
2022/04/10 09:41:14;;;;;;;0.20;0.20;;;15.20;95.20;15.90;102042.00;;;;5039571;28;20329;-68
2022/04/10 09:43:45;;;;;;;0.10;0.10;;;15.40;95.40;14.90;102089.00;;;;5038973;28;20230;-65
2022/04/10 09:46:13;;;;;;;0.20;0.20;;;14.90;96.30;15.30;102089.00;;;;5054819;28;20307;-65
2022/04/10 09:48:41;;;;;;;0.20;0.20;;;15.10;96.20;15.50;102082.00;;;;5055845;28;20174;-67
2022/04/10 09:51:12;;;;;;;0.10;0.10;;;15.40;95.60;12.80;102105.00;;;;5038079;28;20277;-66
2022/04/10 09:54:05;;;;;;;0.20;0.20;;;13.60;96.80;13.30;102108.00;;;;5038505;28;20189;-66
2022/04/10 09:56:32;;;;;;;0.20;0.20;;;13.60;96.00;14.80;102080.00;;;;5054879;28;20516;-66
2022/04/10 09:59:05;;;;;;;0.10;0.10;;;14.10;97.20;15.80;102084.00;;;;5055060;28;20178;-66
2022/04/10 10:01:31;;;;;;;0.13;0.13;;;15.00;95.70;13.70;102105.00;;;;5054444;28;20209;-65
2022/04/10 10:04:01;;;;;;;1.40;1.20;;;14.40;95.20;12.90;102113.00;;;;5037757;28;20215;-66
2022/04/10 10:06:27;;;;;;;0.70;0.70;;;13.50;96.00;12.00;102129.00;;;;5055166;28;20264;-65
2022/04/10 10:08:55;;;;;;;2.87;0.90;;;12.40;97.90;11.50;102152.00;;;;5038254;28;20238;-65
2022/04/10 10:11:22;;;;;;;0.67;0.67;;;11.90;98.30;11.90;102144.00;;;;5055129;28;20276;-66
2022/04/10 10:13:53;;;;;;;0.23;0.23;;;11.90;99.20;14.30;102103.00;;;;5054141;28;20178;-66
2022/04/10 10:16:22;;;;;;;0.40;0.40;;;13.20;98.50;13.60;102110.00;;;;5072630;28;20659;-67
2022/04/10 10:18:57;;;;;;;4.43;1.60;;;13.30;97.40;13.80;102100.00;;;;5072543;28;20183;-65
2022/04/10 10:33:22;;;;;;;0.10;0.10;;;13.30;95.00;13.20;102099.00;;;;5112502;27;1333841;-66
2022/04/10 10:35:59;;;;;;;4.13;0.87;;;13.10;96.30;13.90;102090.00;;;;5111077;28;20201;-65
2022/04/10 10:38:30;;;;;;;0.10;0.10;;;13.50;97.10;15.30;102079.00;;;;5128921;28;20171;-65
2022/04/10 10:41:18;;;;;;;0.30;0.30;;;14.40;96.40;16.60;102067.00;;;;5130062;27;20189;-64
2022/04/10 10:43:52;;;;;;;0.10;0.10;;;15.50;95.30;17.70;102051.00;;;;5129035;28;20656;-65
2022/04/10 10:46:32;;;;;;;0.10;0.10;;;16.60;94.30;18.50;102042.00;;;;5112297;28;20178;-65
2022/04/10 10:49:17;;;;;;;1.63;1.17;;;17.60;93.00;17.90;102027.00;;;;5129350;28;20194;-65
2022/04/10 10:51:50;;;;;;;0.10;0.10;;;17.60;93.00;16.70;102047.00;;;;5131301;27;20210;-66
2022/04/10 10:54:44;;;;;;;0.13;0.13;;;16.90;92.00;15.20;102059.00;;;;5128160;28;20631;-66
2022/04/10 10:57:43;;;;;;;0.10;0.10;;;15.60;93.70;14.60;102039.00;;;;5122211;27;20188;-64
2022/04/10 11:00:19;;;;;;;0.43;0.43;;;14.50;95.60;12.60;102078.00;;;;5121373;28;20662;-64
2022/04/10 11:02:54;;;;;;;0.60;0.60;;;13.20;96.00;11.40;102063.00;;;;5125765;28;20196;-65
2022/04/10 11:05:30;;;;;;;0.10;0.10;;;12.00;97.40;11.30;102101.00;;;;5121577;28;20190;-65
2022/04/10 11:08:05;;;;;;;0.10;0.10;;;11.40;98.80;12.10;102103.00;;;;5108511;28;20243;-65
2022/04/10 11:11:00;;;;;;;0.47;0.47;;;11.60;98.90;12.50;102091.00;;;;5108475;28;20173;-65
2022/04/10 11:13:46;;;;;;;0.10;0.10;;;12.30;98.10;11.60;102104.00;;;;5108797;28;20185;-65
2022/04/10 11:16:15;;;;;;;0.70;0.70;;;12.00;98.40;12.50;102082.00;;;;5108518;28;20649;-65
2022/04/10 11:18:50;;;;;;;0.20;0.20;;;12.00;99.80;13.90;102070.00;;;;5091429;28;20214;-65
2022/04/10 11:21:23;;;;;;;0.63;0.63;;;13.00;98.90;14.70;102052.00;;;;5108670;28;20190;-65
2022/04/10 11:23:58;;;;;;;0.10;0.10;;;14.00;97.20;16.10;102045.00;;;;5091291;28;20266;-65
2022/04/10 11:26:28;;;;;;;0.50;0.50;;;15.10;96.00;17.70;102037.00;;;;5091262;28;20218;-66
2022/04/10 11:29:02;;;;;;;0.60;0.60;;;16.40;95.10;16.20;102039.00;;;;5124392;28;20210;-65
2022/04/10 11:31:39;;;;;;;0.10;0.10;;;17.00;92.40;17.90;102001.00;;;;5129989;27;20196;-65
2022/04/10 11:34:14;;;;;;;0.10;0.10;;;17.10;93.30;15.90;102044.00;;;;5127286;28;20188;-65